Time;durP1;ratioP1;P1;durP2;ratioP2;P2;SDS_P1;SDS_P2;PMS_P1;PMS_P2;Temp;Humidity;BMP_temperature;BMP_pressure;BME280_temperature;BME280_humidity;BME280_pressure;Samples;Min_cycle;Max_cycle;Signal;HPM_P1;HPM_P2
2021/07/20 00:01:20;;;;;;;14.03;9.60;;;;;;;;;;4977004;28;20179;-87
2021/07/20 00:04:24;;;;;;;14.67;9.83;;;;;;;;;;4976754;28;20191;-87
2021/07/20 00:07:29;;;;;;;15.10;9.70;;;;;;;;;;4976674;28;20222;-87
2021/07/20 00:10:38;;;;;;;15.70;10.30;;;;;;;;;;4954357;28;20198;-87
2021/07/20 00:13:42;;;;;;;15.47;11.10;;;;;;;;;;4976736;28;20202;-87
2021/07/20 00:16:46;;;;;;;19.83;10.30;;;;;;;;;;4964282;28;20229;-87
2021/07/20 00:19:50;;;;;;;18.67;10.37;;;;;;;;;;4976868;28;20194;-87
2021/07/20 00:22:55;;;;;;;13.53;9.97;;;;;;;;;;4965366;28;20214;-87
2021/07/20 00:25:59;;;;;;;19.10;11.20;;;;;;;;;;4965075;28;20666;-87
2021/07/20 00:29:03;;;;;;;17.33;11.07;;;;;;;;;;4976403;28;20186;-87
2021/07/20 00:32:09;;;;;;;17.53;10.17;;;;;;;;;;4965774;28;20562;-88
2021/07/20 00:35:14;;;;;;;16.97;10.97;;;;;;;;;;4965445;28;20191;-86
2021/07/20 00:38:18;;;;;;;18.97;10.40;;;;;;;;;;4964665;28;20241;-89
2021/07/20 00:41:28;;;;;;;15.37;10.80;;;;;;;;;;4954605;28;20198;-87
2021/07/20 00:44:33;;;;;;;17.27;11.33;;;;;;;;;;4964843;28;20186;-88
2021/07/20 00:47:37;;;;;;;16.67;10.77;;;;;;;;;;4964705;28;20233;-87
2021/07/20 00:50:44;;;;;;;15.80;10.90;;;;;;;;;;4954314;28;20553;-88
2021/07/20 00:53:51;;;;;;;18.87;12.20;;;;;;;;;;4964923;28;20198;-88
2021/07/20 00:56:57;;;;;;;16.73;11.10;;;;;;;;;;4964753;28;20238;-87
2021/07/20 00:59:36;;;;;;;15.13;11.10;;;;;;;;;;5071287;28;20810;-74
2021/07/20 01:02:40;;;;;;;14.60;11.00;;;;;;;;;;5070685;28;20215;-73
2021/07/20 01:05:45;;;;;;;15.23;11.47;;;;;;;;;;5070273;28;20187;-73
2021/07/20 01:08:51;;;;;;;21.63;11.10;;;;;;;;;;5070855;28;20176;-73
2021/07/20 01:11:58;;;;;;;14.33;11.17;;;;;;;;;;5070587;28;20219;-73
2021/07/20 01:15:05;;;;;;;12.77;10.87;;;;;;;;;;5070755;28;20180;-74
2021/07/20 01:18:09;;;;;;;13.27;10.60;;;;;;;;;;5069448;28;20203;-74
2021/07/20 01:21:14;;;;;;;15.50;10.67;;;;;;;;;;5070514;28;20219;-73
2021/07/20 01:24:19;;;;;;;16.93;11.23;;;;;;;;;;5069415;28;20200;-74
2021/07/20 01:27:28;;;;;;;15.70;11.00;;;;;;;;;;5069388;28;20184;-73
2021/07/20 01:30:35;;;;;;;15.23;10.87;;;;;;;;;;5070448;28;20180;-74
2021/07/20 01:33:41;;;;;;;18.30;11.57;;;;;;;;;;5070390;28;20184;-74
2021/07/20 01:36:48;;;;;;;14.30;10.57;;;;;;;;;;5069741;28;20184;-74
2021/07/20 01:39:57;;;;;;;16.80;11.13;;;;;;;;;;5069964;28;20172;-74
2021/07/20 01:43:02;;;;;;;13.43;9.47;;;;;;;;;;5069858;28;20223;-74
2021/07/20 01:46:08;;;;;;;13.80;10.50;;;;;;;;;;5069048;28;20184;-74
2021/07/20 01:49:14;;;;;;;18.90;11.07;;;;;;;;;;5069195;28;20195;-73
2021/07/20 01:52:24;;;;;;;17.33;10.97;;;;;;;;;;5068866;28;20686;-74
2021/07/20 01:55:28;;;;;;;18.27;11.40;;;;;;;;;;5069094;28;20172;-74
2021/07/20 01:58:32;;;;;;;14.43;10.67;;;;;;;;;;5069459;28;20222;-74
2021/07/20 02:02:49;;;;;;;18.10;11.27;;;;;;;;;;5069529;28;20219;-74
2021/07/20 02:09:24;;;;;;;14.73;10.90;;;;;;;;;;5065100;28;20184;-74
2021/07/20 02:12:36;;;;;;;13.67;10.87;;;;;;;;;;5055439;28;20208;-74
2021/07/20 02:16:00;;;;;;;13.43;10.07;;;;;;;;;;5056025;28;20184;-74
2021/07/20 02:19:12;;;;;;;15.33;10.03;;;;;;;;;;5056025;28;20208;-74
2021/07/20 02:22:36;;;;;;;14.53;9.90;;;;;;;;;;5055938;28;20685;-74
2021/07/20 02:25:41;;;;;;;14.33;10.30;;;;;;;;;;5056178;28;20180;-74
2021/07/20 02:28:48;;;;;;;18.03;10.87;;;;;;;;;;5055635;28;20177;-74
2021/07/20 02:31:56;;;;;;;17.80;11.17;;;;;;;;;;5056320;28;20215;-74
2021/07/20 02:35:01;;;;;;;16.33;10.77;;;;;;;;;;5055626;28;20195;-74
2021/07/20 02:38:12;;;;;;;13.73;10.17;;;;;;;;;;5055812;28;20208;-74
2021/07/20 02:41:18;;;;;;;15.03;10.70;;;;;;;;;;5054689;28;20215;-74
2021/07/20 02:44:26;;;;;;;14.40;11.00;;;;;;;;;;5055510;28;20516;-73
2021/07/20 02:47:33;;;;;;;16.10;10.53;;;;;;;;;;5054928;28;20180;-74
2021/07/20 02:50:40;;;;;;;13.97;10.60;;;;;;;;;;5054624;28;20181;-74
2021/07/20 02:54:00;;;;;;;16.10;10.57;;;;;;;;;;5054533;28;20189;-74
2021/07/20 02:57:06;;;;;;;14.23;10.37;;;;;;;;;;5055503;28;20192;-74
2021/07/20 03:00:12;;;;;;;16.87;10.43;;;;;;;;;;5054408;28;20164;-74
2021/07/20 03:03:30;;;;;;;13.33;9.43;;;;;;;;;;5055391;28;20665;-74
2021/07/20 03:06:45;;;;;;;13.43;9.83;;;;;;;;;;5054523;28;20188;-74
2021/07/20 03:09:51;;;;;;;14.70;10.53;;;;;;;;;;5054533;28;20172;-74
2021/07/20 03:13:02;;;;;;;15.43;10.60;;;;;;;;;;5055065;28;20219;-74
2021/07/20 03:16:08;;;;;;;11.93;9.63;;;;;;;;;;5054397;28;20180;-74
2021/07/20 03:19:15;;;;;;;14.47;9.90;;;;;;;;;;5053795;28;20220;-74
2021/07/20 03:22:25;;;;;;;13.83;10.33;;;;;;;;;;5053700;28;20216;-74
2021/07/20 03:25:33;;;;;;;18.17;10.33;;;;;;;;;;5053922;28;20176;-74
2021/07/20 03:28:40;;;;;;;18.50;10.30;;;;;;;;;;5054777;28;20176;-74
2021/07/20 03:31:46;;;;;;;14.70;9.97;;;;;;;;;;5053929;28;20544;-74
2021/07/20 03:34:52;;;;;;;18.93;10.63;;;;;;;;;;5054835;28;20180;-74
2021/07/20 03:37:58;;;;;;;14.10;10.03;;;;;;;;;;5053745;28;20176;-74
2021/07/20 03:41:03;;;;;;;14.43;10.40;;;;;;;;;;5053819;28;20176;-74
2021/07/20 03:44:10;;;;;;;16.87;10.43;;;;;;;;;;5054399;28;20184;-74
2021/07/20 03:47:16;;;;;;;14.17;10.73;;;;;;;;;;5053786;28;20176;-74
2021/07/20 03:50:21;;;;;;;15.53;11.37;;;;;;;;;;5053971;28;20183;-74
2021/07/20 03:53:28;;;;;;;16.30;10.43;;;;;;;;;;5053415;28;20202;-74
2021/07/20 03:56:34;;;;;;;16.10;11.23;;;;;;;;;;5054350;28;20702;-74
2021/07/20 03:59:40;;;;;;;18.53;11.47;;;;;;;;;;5047333;28;20273;-74
2021/07/20 04:03:22;;;;;;;15.13;10.73;;;;;;;;;;5053948;28;20345;-74
2021/07/20 04:06:48;;;;;;;18.57;11.57;;;;;;;;;;5054007;28;20180;-74
2021/07/20 04:10:06;;;;;;;16.23;10.73;;;;;;;;;;5054183;28;20189;-74
2021/07/20 04:13:20;;;;;;;14.20;11.03;;;;;;;;;;5053979;28;20195;-73
2021/07/20 04:16:35;;;;;;;14.03;9.80;;;;;;;;;;5053264;28;20191;-73
2021/07/20 04:19:40;;;;;;;13.03;9.70;;;;;;;;;;5053240;28;20208;-73
2021/07/20 04:22:46;;;;;;;18.83;11.53;;;;;;;;;;5053709;28;20705;-74
2021/07/20 04:25:56;;;;;;;17.40;11.83;;;;;;;;;;5053941;28;20187;-74
2021/07/20 04:29:02;;;;;;;14.90;10.97;;;;;;;;;;5053648;28;20182;-73
2021/07/20 04:32:09;;;;;;;18.60;10.80;;;;;;;;;;5053360;28;20233;-74
2021/07/20 04:35:17;;;;;;;15.27;11.33;;;;;;;;;;5052981;28;20187;-73
2021/07/20 04:38:29;;;;;;;18.97;11.57;;;;;;;;;;5055466;22;20245;-72
2021/07/20 04:41:37;;;;;;;18.17;10.90;;;;;;;;;;5032710;28;20221;-72
2021/07/20 04:44:41;;;;;;;16.00;10.87;;;;;;;;;;5033788;28;20196;-72
2021/07/20 04:47:59;;;;;;;19.10;11.47;;;;;;;;;;5032906;28;20192;-73
2021/07/20 04:51:22;;;;;;;18.93;11.03;;;;;;;;;;5033496;28;20220;-73
2021/07/20 04:54:28;;;;;;;20.47;11.97;;;;;;;;;;5033113;28;20176;-73
2021/07/20 04:57:37;;;;;;;15.33;11.20;;;;;;;;;;5032757;28;20180;-73
2021/07/20 05:00:48;;;;;;;20.80;11.00;;;;;;;;;;5032497;28;20196;-73
2021/07/20 05:03:55;;;;;;;15.23;10.47;;;;;;;;;;5032372;28;20589;-73
2021/07/20 05:07:03;;;;;;;18.80;12.57;;;;;;;;;;5032682;28;20176;-73
2021/07/20 05:10:14;;;;;;;16.27;10.87;;;;;;;;;;5033225;28;20530;-73
2021/07/20 05:13:39;;;;;;;15.33;10.70;;;;;;;;;;5032487;28;20550;-73
2021/07/20 05:16:45;;;;;;;14.57;10.57;;;;;;;;;;5032644;28;20190;-73
2021/07/20 05:19:50;;;;;;;15.70;11.07;;;;;;;;;;5032402;28;20209;-73
2021/07/20 05:22:59;;;;;;;13.73;10.10;;;;;;;;;;5032182;28;20223;-73
2021/07/20 05:26:04;;;;;;;17.57;10.20;;;;;;;;;;5032574;28;20189;-72
2021/07/20 05:29:08;;;;;;;13.93;10.53;;;;;;;;;;5032297;28;20184;-72
2021/07/20 05:32:26;;;;;;;13.20;10.63;;;;;;;;;;5022595;28;20224;-73
2021/07/20 05:35:31;;;;;;;18.23;10.97;;;;;;;;;;5021148;28;20184;-73
2021/07/20 05:38:36;;;;;;;13.80;10.17;;;;;;;;;;5030806;28;20221;-72
2021/07/20 05:41:58;;;;;;;20.63;10.37;;;;;;;;;;5021040;28;20257;-72
2021/07/20 05:45:06;;;;;;;16.20;10.27;;;;;;;;;;5035021;28;20192;-73
2021/07/20 05:48:14;;;;;;;18.73;10.03;;;;;;;;;;5037108;28;20189;-72
2021/07/20 05:51:21;;;;;;;17.67;10.07;;;;;;;;;;5036453;28;20590;-72
2021/07/20 05:54:46;;;;;;;16.97;10.20;;;;;;;;;;5036788;28;20186;-73
2021/07/20 05:57:59;;;;;;;16.30;9.93;;;;;;;;;;5047252;28;20200;-73
2021/07/20 06:01:06;;;;;;;16.60;10.67;;;;;;;;;;5035803;28;20173;-72
2021/07/20 06:04:11;;;;;;;15.57;9.93;;;;;;;;;;5036580;28;20181;-72
2021/07/20 06:07:15;;;;;;;20.30;10.57;;;;;;;;;;5036416;28;20181;-73
2021/07/20 06:10:20;;;;;;;14.20;9.47;;;;;;;;;;5035423;28;20204;-73
2021/07/20 06:13:26;;;;;;;13.67;9.27;;;;;;;;;;5036307;28;20185;-72
2021/07/20 06:16:33;;;;;;;18.23;10.67;;;;;;;;;;5036406;28;20616;-73
2021/07/20 06:19:37;;;;;;;12.27;9.30;;;;;;;;;;5046881;28;20205;-73
2021/07/20 06:22:51;;;;;;;13.27;9.87;;;;;;;;;;5036202;28;20220;-73
2021/07/20 06:26:02;;;;;;;19.77;11.00;;;;;;;;;;5035432;28;20182;-73
2021/07/20 06:29:09;;;;;;;15.07;10.30;;;;;;;;;;5035158;28;20205;-72
2021/07/20 06:32:14;;;;;;;14.13;10.40;;;;;;;;;;5046675;28;20223;-72
2021/07/20 06:35:19;;;;;;;17.87;10.77;;;;;;;;;;5036070;28;20204;-73
2021/07/20 06:38:24;;;;;;;15.40;10.77;;;;;;;;;;5035564;28;20215;-72
2021/07/20 06:41:33;;;;;;;15.67;10.10;;;;;;;;;;5035650;28;20219;-73
2021/07/20 06:44:37;;;;;;;15.73;10.27;;;;;;;;;;5034815;28;20188;-73
2021/07/20 06:47:48;;;;;;;15.50;9.97;;;;;;;;;;5035851;28;20212;-73
2021/07/20 06:50:53;;;;;;;14.07;9.93;;;;;;;;;;5035406;28;20177;-73
2021/07/20 06:53:58;;;;;;;14.67;9.53;;;;;;;;;;5034738;28;20180;-73
2021/07/20 06:57:05;;;;;;;12.07;9.70;;;;;;;;;;5035856;28;20185;-73
2021/07/20 07:00:10;;;;;;;16.07;9.67;;;;;;;;;;5034621;28;20200;-73
2021/07/20 07:03:16;;;;;;;20.97;9.83;;;;;;;;;;5031167;28;20228;-72
2021/07/20 07:06:22;;;;;;;13.30;9.93;;;;;;;;;;5046159;28;20176;-73
2021/07/20 07:09:27;;;;;;;16.10;10.50;;;;;;;;;;5020834;28;20193;-73
2021/07/20 07:12:32;;;;;;;13.80;9.40;;;;;;;;;;5015252;28;20716;-72
2021/07/20 07:15:38;;;;;;;15.00;10.23;;;;;;;;;;5015519;28;20181;-73
2021/07/20 07:18:43;;;;;;;14.93;10.60;;;;;;;;;;5014405;28;20173;-73
2021/07/20 07:21:50;;;;;;;14.17;10.43;;;;;;;;;;5026105;28;20228;-73
2021/07/20 07:24:55;;;;;;;17.77;10.30;;;;;;;;;;5014559;28;20193;-73
2021/07/20 07:27:59;;;;;;;14.60;10.03;;;;;;;;;;5015388;28;20677;-73
2021/07/20 07:31:03;;;;;;;18.17;10.10;;;;;;;;;;5014837;28;20206;-73
2021/07/20 07:34:09;;;;;;;16.33;9.80;;;;;;;;;;5015162;28;20186;-73
2021/07/20 07:37:17;;;;;;;13.70;9.63;;;;;;;;;;5015059;28;20178;-73
2021/07/20 07:40:23;;;;;;;13.87;9.77;;;;;;;;;;5013767;28;20217;-73
2021/07/20 07:43:29;;;;;;;14.93;9.70;;;;;;;;;;5014855;28;20189;-73
2021/07/20 07:46:36;;;;;;;12.67;8.83;;;;;;;;;;5025520;28;20174;-73
2021/07/20 07:49:43;;;;;;;14.53;9.27;;;;;;;;;;5014844;28;20522;-72
2021/07/20 07:52:47;;;;;;;17.87;8.60;;;;;;;;;;5014458;28;20225;-72
2021/07/20 07:55:55;;;;;;;20.03;9.10;;;;;;;;;;5013676;28;20196;-73
2021/07/20 07:59:00;;;;;;;13.60;7.97;;;;;;;;;;5024941;28;20177;-72
2021/07/20 08:02:06;;;;;;;13.97;8.50;;;;;;;;;;5014613;28;20546;-72
2021/07/20 08:05:10;;;;;;;10.33;8.73;;;;;;;;;;5014591;28;20522;-72
2021/07/20 08:08:17;;;;;;;13.63;8.70;;;;;;;;;;5024322;28;20173;-72
2021/07/20 08:11:23;;;;;;;15.23;8.10;;;;;;;;;;5014439;28;20213;-72
2021/07/20 08:14:28;;;;;;;14.30;8.30;;;;;;;;;;5014157;28;20186;-72
2021/07/20 08:17:33;;;;;;;13.63;8.10;;;;;;;;;;5014433;28;20518;-73
2021/07/20 08:20:42;;;;;;;14.27;7.93;;;;;;;;;;5014191;28;20203;-72
2021/07/20 08:23:46;;;;;;;9.70;7.00;;;;;;;;;;5014883;28;20188;-73
2021/07/20 08:27:03;;;;;;;11.37;8.20;;;;;;;;;;5013235;28;20180;-73
2021/07/20 08:30:09;;;;;;;12.77;8.00;;;;;;;;;;5024801;28;20182;-73
2021/07/20 08:33:21;;;;;;;10.00;8.50;;;;;;;;;;5013064;28;20217;-73
2021/07/20 08:36:27;;;;;;;16.77;7.93;;;;;;;;;;5014174;28;20216;-73
2021/07/20 08:39:33;;;;;;;11.87;8.03;;;;;;;;;;5024951;28;20207;-72
2021/07/20 08:42:52;;;;;;;11.63;7.03;;;;;;;;;;5033467;28;20711;-72
2021/07/20 08:46:28;;;;;;;11.35;7.15;;;;;;;;;;5032943;28;20180;-73
2021/07/20 08:49:49;;;;;;;10.30;7.10;;;;;;;;;;5013201;28;20514;-73
2021/07/20 08:53:28;;;;;;;8.73;6.93;;;;;;;;;;5024101;28;20222;-73
2021/07/20 08:56:42;;;;;;;11.70;7.93;;;;;;;;;;5024181;28;20179;-73
2021/07/20 09:00:15;;;;;;;12.85;7.45;;;;;;;;;;5014051;28;20545;-73
2021/07/20 09:03:32;;;;;;;11.02;7.85;;;;;;;;;;5013821;28;20192;-73
2021/07/20 09:06:48;;;;;;;10.35;7.28;;;;;;;;;;5024245;28;20179;-73
2021/07/20 09:09:57;;;;;;;14.88;7.28;;;;;;;;;;5015764;28;20201;-73
2021/07/20 09:13:03;;;;;;;11.63;7.43;;;;;;;;;;5033465;28;20211;-73
2021/07/20 09:16:32;;;;;;;14.40;7.15;;;;;;;;;;5033147;28;20559;-73
2021/07/20 09:20:01;;;;;;;9.18;6.55;;;;;;;;;;5034339;28;20176;-73
2021/07/20 09:23:47;;;;;;;9.48;7.32;;;;;;;;;;5036552;28;20223;-73
2021/07/20 09:26:56;;;;;;;13.35;7.53;;;;;;;;;;5037337;28;20521;-73
2021/07/20 09:30:03;;;;;;;11.20;7.68;;;;;;;;;;5036975;28;20666;-73
2021/07/20 09:33:44;;;;;;;15.43;7.55;;;;;;;;;;5036870;28;20218;-73
2021/07/20 09:37:03;;;;;;;9.77;6.65;;;;;;;;;;5036924;28;20631;-73
2021/07/20 09:40:39;;;;;;;11.23;7.00;;;;;;;;;;5036480;28;20223;-72
2021/07/20 09:43:53;;;;;;;12.38;7.05;;;;;;;;;;5025280;28;20198;-72
2021/07/20 09:46:57;;;;;;;14.43;8.10;;;;;;;;;;5037240;28;20621;-73
2021/07/20 09:50:09;;;;;;;14.35;7.97;;;;;;;;;;5016362;28;20176;-73
2021/07/20 09:53:35;;;;;;;14.40;7.63;;;;;;;;;;5016586;28;20231;-72
2021/07/20 09:57:04;;;;;;;10.95;7.20;;;;;;;;;;5017011;28;20181;-73
2021/07/20 10:00:20;;;;;;;9.35;7.30;;;;;;;;;;5016868;28;20204;-73
2021/07/20 10:03:41;;;;;;;10.95;7.43;;;;;;;;;;5016056;28;20510;-73
2021/07/20 10:07:11;;;;;;;8.40;7.50;;;;;;;;;;5017265;28;20625;-73
2021/07/20 10:10:19;;;;;;;10.48;7.32;;;;;;;;;;5016985;28;20185;-73
2021/07/20 10:13:53;;;;;;;8.43;7.43;;;;;;;;;;5015989;28;20536;-73
2021/07/20 10:17:30;;;;;;;10.23;7.18;;;;;;;;;;5016679;28;20178;-73
2021/07/20 10:20:45;;;;;;;9.13;7.80;;;;;;;;;;5016453;28;20205;-73
2021/07/20 10:23:59;;;;;;;11.80;7.57;;;;;;;;;;5016794;28;20196;-73
2021/07/20 10:27:14;;;;;;;10.45;8.05;;;;;;;;;;5026770;28;20521;-73
2021/07/20 10:30:20;;;;;;;9.20;7.80;;;;;;;;;;5014885;28;20185;-73
2021/07/20 10:33:29;;;;;;;11.68;8.05;;;;;;;;;;5016291;28;20200;-73
2021/07/20 10:36:42;;;;;;;9.23;7.45;;;;;;;;;;5016255;28;20178;-73
2021/07/20 10:40:09;;;;;;;10.85;7.60;;;;;;;;;;5058799;22;20559;-74
2021/07/20 10:43:47;;;;;;;12.18;8.13;;;;;;;;;;5046240;28;20224;-74
2021/07/20 10:46:53;;;;;;;8.27;7.18;;;;;;;;;;5036446;28;20180;-74
2021/07/20 10:50:05;;;;;;;12.15;7.95;;;;;;;;;;5054654;28;20201;-74
2021/07/20 10:53:34;;;;;;;9.65;7.70;;;;;;;;;;5054520;28;20226;-74
2021/07/20 10:56:47;;;;;;;13.15;8.27;;;;;;;;;;5055869;28;20186;-74
2021/07/20 11:00:11;;;;;;;14.13;8.43;;;;;;;;;;5043582;28;20187;-74
2021/07/20 11:03:34;;;;;;;11.55;8.88;;;;;;;;;;5054360;28;20225;-75
2021/07/20 11:06:41;;;;;;;13.50;8.90;;;;;;;;;;5055316;28;20187;-74
2021/07/20 11:09:47;;;;;;;12.20;8.82;;;;;;;;;;5055361;28;20180;-74
2021/07/20 11:12:56;;;;;;;11.70;8.95;;;;;;;;;;5055420;28;20208;-74
2021/07/20 11:16:05;;;;;;;12.27;8.75;;;;;;;;;;5054354;28;20199;-73
2021/07/20 11:19:11;;;;;;;12.13;8.82;;;;;;;;;;5054403;28;20181;-74
2021/07/20 11:22:16;;;;;;;14.70;10.50;;;;;;;;;;5054535;28;20719;-74
2021/07/20 11:25:21;;;;;;;12.85;9.98;;;;;;;;;;5054558;28;20204;-74
2021/07/20 11:28:26;;;;;;;13.00;9.05;;;;;;;;;;5054868;28;20201;-74
2021/07/20 11:31:41;;;;;;;14.05;10.10;;;;;;;;;;5054963;28;20239;-74
2021/07/20 11:34:54;;;;;;;15.25;9.48;;;;;;;;;;5054059;28;20178;-74
2021/07/20 11:38:09;;;;;;;19.23;10.50;;;;;;;;;;5054920;28;20183;-74
2021/07/20 11:41:22;;;;;;;14.52;9.40;;;;;;;;;;5054452;28;20237;-75
2021/07/20 11:44:26;;;;;;;12.63;9.70;;;;;;;;;;5054333;28;20678;-75
2021/07/20 11:47:46;;;;;;;11.93;10.05;;;;;;;;;;5054392;28;20173;-75
2021/07/20 11:51:00;;;;;;;14.13;10.40;;;;;;;;;;5054354;28;20189;-74
2021/07/20 11:54:11;;;;;;;15.60;11.90;;;;;;;;;;5054179;28;20219;-75
2021/07/20 11:57:34;;;;;;;24.20;12.43;;;;;;;;;;5054729;28;20191;-74
2021/07/20 12:00:50;;;;;;;15.10;11.88;;;;;;;;;;5054341;28;20686;-75
2021/07/20 12:04:22;;;;;;;13.63;11.10;;;;;;;;;;5054063;28;20182;-75
2021/07/20 12:07:47;;;;;;;16.10;11.00;;;;;;;;;;5053611;28;20547;-75
2021/07/20 12:10:56;;;;;;;13.27;10.30;;;;;;;;;;5054199;28;20570;-75
2021/07/20 12:14:08;;;;;;;12.00;10.20;;;;;;;;;;5041610;28;20195;-76
2021/07/20 12:17:13;;;;;;;10.85;9.38;;;;;;;;;;5054128;28;20195;-75
2021/07/20 12:20:20;;;;;;;18.15;9.27;;;;;;;;;;5053688;28;20200;-75
2021/07/20 12:23:25;;;;;;;14.25;8.55;;;;;;;;;;5053683;28;20188;-74
2021/07/20 12:26:30;;;;;;;11.35;9.70;;;;;;;;;;5054268;28;20508;-75
2021/07/20 12:29:41;;;;;;;12.18;8.50;;;;;;;;;;5052849;28;20181;-75
2021/07/20 12:32:45;;;;;;;15.20;8.98;;;;;;;;;;5053602;28;20208;-75
2021/07/20 12:35:51;;;;;;;14.10;8.65;;;;;;;;;;5053954;28;20188;-74
2021/07/20 12:39:11;;;;;;;10.55;9.23;;;;;;;;;;5053751;28;20547;-74
2021/07/20 12:42:16;;;;;;;10.05;8.70;;;;;;;;;;5053479;28;20232;-74
2021/07/20 12:45:23;;;;;;;11.77;8.30;;;;;;;;;;5053923;28;20180;-75
2021/07/20 12:48:30;;;;;;;9.80;8.35;;;;;;;;;;5052945;28;20184;-74
2021/07/20 12:51:34;;;;;;;11.25;8.13;;;;;;;;;;5044263;28;20220;-75
2021/07/20 12:54:40;;;;;;;11.10;8.32;;;;;;;;;;5042445;28;20200;-75
2021/07/20 12:57:56;;;;;;;16.23;8.85;;;;;;;;;;5053527;28;20200;-75
2021/07/20 13:01:00;;;;;;;9.45;7.65;;;;;;;;;;5032674;28;20209;-74
2021/07/20 13:04:06;;;;;;;10.93;8.40;;;;;;;;;;5033319;28;20176;-74
2021/07/20 13:07:10;;;;;;;13.50;8.73;;;;;;;;;;5033233;28;20185;-75
2021/07/20 13:10:15;;;;;;;10.65;8.05;;;;;;;;;;5032443;28;20177;-75
2021/07/20 13:13:20;;;;;;;8.55;7.32;;;;;;;;;;5036765;28;20188;-74
2021/07/20 13:16:25;;;;;;;8.68;7.40;;;;;;;;;;5052637;28;20240;-75
2021/07/20 13:19:31;;;;;;;9.43;7.47;;;;;;;;;;5053117;28;20181;-74
2021/07/20 13:22:40;;;;;;;9.68;7.45;;;;;;;;;;5052918;28;20573;-74
2021/07/20 13:25:48;;;;;;;9.70;7.90;;;;;;;;;;5052515;28;20192;-75
2021/07/20 13:28:57;;;;;;;14.85;7.85;;;;;;;;;;5052917;28;20196;-75
2021/07/20 13:32:06;;;;;;;9.32;7.55;;;;;;;;;;5040882;28;20208;-74
2021/07/20 13:35:10;;;;;;;16.05;7.45;;;;;;;;;;5053171;28;20185;-75
2021/07/20 13:38:15;;;;;;;10.90;8.40;;;;;;;;;;5052706;28;20201;-75
2021/07/20 13:41:20;;;;;;;9.20;7.30;;;;;;;;;;5053233;28;20232;-74
2021/07/20 13:44:26;;;;;;;14.00;8.18;;;;;;;;;;5052762;28;20196;-74
2021/07/20 13:47:34;;;;;;;20.20;8.45;;;;;;;;;;5053382;28;20184;-74
2021/07/20 13:50:40;;;;;;;8.68;7.45;;;;;;;;;;5052766;28;20185;-74
2021/07/20 13:53:49;;;;;;;13.90;7.97;;;;;;;;;;5052114;28;20172;-74
2021/07/20 13:56:55;;;;;;;10.30;7.57;;;;;;;;;;5053256;28;20185;-75
2021/07/20 14:00:01;;;;;;;10.98;7.55;;;;;;;;;;5053016;28;20185;-75
2021/07/20 14:03:05;;;;;;;12.13;7.60;;;;;;;;;;5052359;28;20220;-74
2021/07/20 14:06:12;;;;;;;10.40;7.70;;;;;;;;;;5054830;28;20631;-74
2021/07/20 14:09:16;;;;;;;9.02;7.32;;;;;;;;;;5055917;28;20180;-74
2021/07/20 14:12:21;;;;;;;9.52;8.07;;;;;;;;;;5056116;28;20560;-74
2021/07/20 14:15:27;;;;;;;9.63;7.25;;;;;;;;;;5056077;28;20200;-74
2021/07/20 14:18:32;;;;;;;8.65;7.22;;;;;;;;;;5056373;28;20177;-74
2021/07/20 14:21:39;;;;;;;10.85;7.85;;;;;;;;;;5056081;28;20223;-74
2021/07/20 14:24:47;;;;;;;10.85;8.20;;;;;;;;;;5056535;28;20172;-74
2021/07/20 14:27:55;;;;;;;8.70;7.53;;;;;;;;;;5055270;28;20177;-74
2021/07/20 14:31:00;;;;;;;14.82;8.45;;;;;;;;;;5036645;28;20189;-74
2021/07/20 14:34:06;;;;;;;24.17;9.10;;;;;;;;;;5035379;28;20181;-74
2021/07/20 14:37:37;;;;;;;15.88;7.78;;;;;;;;;;5034966;28;20196;-74
2021/07/20 14:40:42;;;;;;;10.65;7.90;;;;;;;;;;5035815;28;20184;-74
2021/07/20 14:43:46;;;;;;;12.25;7.72;;;;;;;;;;5036138;28;20179;-74
2021/07/20 14:46:50;;;;;;;9.82;7.80;;;;;;;;;;5035619;28;20187;-74
2021/07/20 14:50:07;;;;;;;9.85;7.60;;;;;;;;;;5034787;28;20187;-73
2021/07/20 14:53:26;;;;;;;10.52;8.15;;;;;;;;;;5035738;28;20223;-74
2021/07/20 14:56:48;;;;;;;13.90;8.57;;;;;;;;;;5034949;28;20183;-74
2021/07/20 14:59:52;;;;;;;11.77;8.80;;;;;;;;;;5035143;28;20189;-74
2021/07/20 15:02:57;;;;;;;14.07;8.15;;;;;;;;;;5035090;28;20222;-74
2021/07/20 15:06:04;;;;;;;12.77;8.02;;;;;;;;;;5023155;28;20187;-74
2021/07/20 15:09:13;;;;;;;10.40;8.43;;;;;;;;;;5043511;28;20206;-74
2021/07/20 15:12:22;;;;;;;9.30;8.30;;;;;;;;;;5054875;28;20686;-74
2021/07/20 15:15:30;;;;;;;11.48;8.15;;;;;;;;;;5054604;28;20203;-73
2021/07/20 15:19:06;;;;;;;13.48;8.57;;;;;;;;;;5055322;28;20179;-74
2021/07/20 15:22:21;;;;;;;12.32;8.20;;;;;;;;;;5053847;28;20222;-74
2021/07/20 15:25:27;;;;;;;12.13;8.05;;;;;;;;;;5054830;28;20183;-74
2021/07/20 15:28:31;;;;;;;9.85;8.43;;;;;;;;;;5054787;28;20201;-74
2021/07/20 15:31:37;;;;;;;9.95;7.57;;;;;;;;;;5055138;28;20219;-74
2021/07/20 15:34:41;;;;;;;11.48;8.13;;;;;;;;;;5054113;28;20176;-74
2021/07/20 15:37:45;;;;;;;13.18;8.40;;;;;;;;;;5054837;28;20183;-73
2021/07/20 15:40:50;;;;;;;12.10;9.15;;;;;;;;;;5054540;28;20182;-73
2021/07/20 15:43:54;;;;;;;13.20;8.57;;;;;;;;;;5054804;28;20174;-74
2021/07/20 15:46:59;;;;;;;12.25;9.00;;;;;;;;;;5054950;28;20183;-74
2021/07/20 15:50:08;;;;;;;10.48;7.35;;;;;;;;;;5054626;28;20175;-74
2021/07/20 15:53:15;;;;;;;14.25;8.48;;;;;;;;;;5054276;28;20217;-74
2021/07/20 15:56:19;;;;;;;9.73;8.07;;;;;;;;;;5054170;28;20204;-74
2021/07/20 15:59:24;;;;;;;10.45;8.13;;;;;;;;;;5053349;28;20203;-74
2021/07/20 16:02:29;;;;;;;12.45;8.23;;;;;;;;;;5053335;28;20235;-74
2021/07/20 16:05:34;;;;;;;11.98;8.73;;;;;;;;;;5054625;28;20173;-74
2021/07/20 16:08:38;;;;;;;11.55;8.48;;;;;;;;;;5054281;28;20658;-74
2021/07/20 16:11:42;;;;;;;11.98;8.60;;;;;;;;;;5054190;28;20210;-74
2021/07/20 16:14:46;;;;;;;12.68;8.90;;;;;;;;;;5053965;28;20197;-74
2021/07/20 16:17:53;;;;;;;11.95;8.02;;;;;;;;;;5054996;28;20201;-73
2021/07/20 16:21:02;;;;;;;15.13;9.05;;;;;;;;;;5053265;28;20185;-73
2021/07/20 16:24:07;;;;;;;12.15;9.07;;;;;;;;;;5053525;28;20180;-74
2021/07/20 16:27:12;;;;;;;14.73;7.97;;;;;;;;;;5053441;28;20201;-73
2021/07/20 16:30:21;;;;;;;11.35;8.32;;;;;;;;;;5053829;28;20180;-74
2021/07/20 16:33:27;;;;;;;11.63;9.13;;;;;;;;;;5053656;28;20665;-74
2021/07/20 16:36:33;;;;;;;11.80;8.33;;;;;;;;;;5041609;28;20184;-74
2021/07/20 16:39:38;;;;;;;12.10;8.82;;;;;;;;;;5069066;22;20238;-74
2021/07/20 16:42:54;;;;;;;12.67;7.17;;;;;;;;;;5032913;28;20560;-75
2021/07/20 16:46:01;;;;;;;10.33;7.70;;;;;;;;;;5052556;28;20195;-75
2021/07/20 16:49:06;;;;;;;10.87;6.87;;;;;;;;;;5053695;28;20182;-75
2021/07/20 16:52:10;;;;;;;9.57;6.80;;;;;;;;;;5040986;28;20550;-75
2021/07/20 16:55:16;;;;;;;10.73;7.60;;;;;;;;;;5053589;28;20200;-75
2021/07/20 16:58:22;;;;;;;11.37;7.20;;;;;;;;;;5053222;28;20197;-75
2021/07/20 17:01:31;;;;;;;11.77;7.47;;;;;;;;;;5053194;28;20570;-75
2021/07/20 17:04:35;;;;;;;11.00;7.20;;;;;;;;;;5052955;28;20184;-75
2021/07/20 17:07:39;;;;;;;13.20;7.87;;;;;;;;;;5052554;28;20183;-75
2021/07/20 17:10:44;;;;;;;10.90;6.63;;;;;;;;;;5053039;28;20210;-74
2021/07/20 17:13:51;;;;;;;9.53;6.93;;;;;;;;;;5053426;28;20181;-75
2021/07/20 17:16:55;;;;;;;10.00;7.03;;;;;;;;;;5052883;28;20181;-75
2021/07/20 17:19:59;;;;;;;16.93;7.17;;;;;;;;;;5052897;28;20538;-74
2021/07/20 17:23:03;;;;;;;7.53;6.47;;;;;;;;;;5035319;28;20234;-74
2021/07/20 17:26:12;;;;;;;9.00;6.70;;;;;;;;;;5053026;28;20213;-75
2021/07/20 17:29:22;;;;;;;8.97;6.53;;;;;;;;;;5052168;28;20210;-74
2021/07/20 17:32:31;;;;;;;9.50;6.70;;;;;;;;;;5053032;28;20241;-75
2021/07/20 17:35:35;;;;;;;10.50;6.87;;;;;;;;;;5052079;28;20208;-75
2021/07/20 17:38:42;;;;;;;12.40;7.77;;;;;;;;;;5053436;28;20183;-75
2021/07/20 17:45:03;;;;;;;11.77;7.37;;;;;;;;;;5056895;28;20198;-75
2021/07/20 17:48:07;;;;;;;13.30;8.23;;;;;;;;;;5056768;28;20208;-75
2021/07/20 17:51:11;;;;;;;14.17;7.70;;;;;;;;;;5056966;28;20514;-74
2021/07/20 17:54:26;;;;;;;9.23;7.10;;;;;;;;;;5056341;28;20502;-75
2021/07/20 17:57:33;;;;;;;11.47;7.43;;;;;;;;;;5057008;28;20189;-75
2021/07/20 18:00:37;;;;;;;12.93;8.00;;;;;;;;;;5057034;28;20181;-75
2021/07/20 18:03:41;;;;;;;11.33;7.73;;;;;;;;;;5055855;28;20204;-74
2021/07/20 18:06:46;;;;;;;9.03;7.53;;;;;;;;;;5044075;28;20176;-75
2021/07/20 18:09:52;;;;;;;14.17;7.23;;;;;;;;;;5055977;28;20651;-75
2021/07/20 18:12:57;;;;;;;11.13;7.57;;;;;;;;;;5055299;28;20551;-74
2021/07/20 18:16:01;;;;;;;10.50;8.27;;;;;;;;;;5056592;28;20184;-74
2021/07/20 18:19:07;;;;;;;9.53;7.23;;;;;;;;;;5035990;28;20181;-74
2021/07/20 18:22:11;;;;;;;10.20;7.60;;;;;;;;;;5035498;28;20217;-75
2021/07/20 18:25:15;;;;;;;9.77;7.80;;;;;;;;;;5041811;28;20203;-74
2021/07/20 18:28:19;;;;;;;13.00;7.70;;;;;;;;;;5055949;28;20655;-75
2021/07/20 18:31:23;;;;;;;11.13;7.70;;;;;;;;;;5055510;28;20686;-75
2021/07/20 18:34:28;;;;;;;10.03;7.07;;;;;;;;;;5056135;28;20184;-75
2021/07/20 18:37:32;;;;;;;12.27;7.43;;;;;;;;;;5055872;28;20654;-74
2021/07/20 18:40:36;;;;;;;12.37;7.53;;;;;;;;;;5055055;28;20203;-74